createdAt,value
2023-07-03T00:00:37.354Z,482.40
2023-07-03T00:01:37.989Z,483.03
2023-07-03T00:02:38.466Z,480.81
2023-07-03T00:03:38.500Z,481.57
2023-07-03T00:04:38.650Z,483.28
2023-07-03T00:05:38.609Z,481.06
2023-07-03T00:06:38.672Z,483.96
2023-07-03T00:07:38.701Z,486.46
2023-07-03T00:08:37.788Z,481.55
2023-07-03T00:09:37.801Z,483.72
2023-07-03T00:10:38.867Z,480.83
2023-07-03T00:11:38.922Z,485.96
2023-07-03T00:12:38.970Z,487.68
2023-07-03T00:13:39.029Z,485.37
2023-07-03T00:14:39.070Z,485.60
2023-07-03T00:15:38.148Z,483.87
2023-07-03T00:16:39.166Z,487.73
2023-07-03T00:17:39.279Z,483.67
2023-07-03T00:18:38.283Z,482.01
2023-07-03T00:19:38.346Z,482.57
2023-07-03T00:20:39.406Z,480.07
2023-07-03T00:21:39.429Z,489.00
2023-07-03T00:22:38.475Z,485.24
2023-07-03T00:23:39.533Z,480.73
2023-07-03T00:24:39.568Z,474.05
2023-07-03T00:25:40.450Z,488.32
2023-07-03T00:26:39.683Z,484.71
2023-07-03T00:27:38.724Z,487.00
2023-07-03T00:28:39.781Z,485.53
2023-07-03T00:29:38.851Z,486.14
2023-07-03T00:30:39.882Z,480.13
2023-07-03T00:31:39.965Z,484.81
2023-07-03T00:32:39.033Z,482.79
2023-07-03T00:33:40.041Z,484.25
2023-07-03T00:34:39.115Z,485.32
2023-07-03T00:35:40.213Z,479.84
2023-07-03T00:36:40.237Z,485.10
2023-07-03T00:37:40.256Z,480.83
2023-07-03T00:38:40.315Z,482.43
2023-07-03T00:39:40.361Z,478.16
2023-07-03T00:40:40.408Z,484.16
2023-07-03T00:41:39.453Z,484.16
2023-07-03T00:42:40.515Z,484.13
2023-07-03T00:43:39.661Z,480.90
2023-07-03T00:44:39.653Z,483.59
2023-07-03T00:45:40.684Z,481.41
2023-07-03T00:46:40.870Z,486.59
2023-07-03T00:47:40.812Z,483.35
2023-07-03T00:48:39.836Z,485.90
2023-07-03T00:49:39.905Z,484.31
2023-07-03T00:50:39.957Z,481.77
2023-07-03T00:51:41.019Z,485.24
2023-07-03T00:52:41.082Z,487.58
2023-07-03T00:53:40.125Z,482.53
2023-07-03T00:54:40.192Z,485.06
2023-07-03T00:55:40.237Z,482.31
2023-07-03T00:56:41.297Z,487.32
2023-07-03T00:57:41.383Z,479.69
2023-07-03T00:58:40.421Z,488.98
2023-07-03T00:59:40.468Z,484.45
2023-07-03T01:00:40.557Z,485.48
2023-07-03T01:01:41.709Z,483.80
2023-07-03T01:02:41.743Z,487.28
2023-07-03T01:03:40.703Z,480.25
2023-07-03T01:04:41.882Z,485.54
2023-07-03T01:05:41.841Z,484.20
2023-07-03T01:06:41.868Z,484.70
2023-07-03T01:07:41.949Z,483.16
2023-07-03T01:08:42.021Z,485.25
2023-07-03T01:09:41.067Z,484.62
2023-07-03T01:10:42.090Z,484.68
2023-07-03T01:11:42.156Z,487.14
2023-07-03T01:12:41.221Z,483.18
2023-07-03T01:13:42.276Z,483.29
2023-07-03T01:14:42.316Z,476.02
2023-07-03T01:15:42.382Z,483.69
2023-07-03T01:16:42.518Z,479.98
2023-07-03T01:17:42.507Z,483.41
2023-07-03T01:18:41.549Z,476.92
2023-07-03T01:19:42.606Z,480.20
2023-07-03T01:20:42.668Z,483.34
2023-07-03T01:21:43.890Z,486.84
2023-07-03T01:22:42.778Z,480.78
2023-07-03T01:23:42.824Z,480.77
2023-07-03T01:24:42.937Z,482.48
2023-07-03T01:25:42.929Z,481.11
2023-07-03T01:26:43.010Z,481.42
2023-07-03T01:27:43.054Z,483.71
2023-07-03T01:28:43.134Z,479.55
2023-07-03T01:29:43.164Z,478.66
2023-07-03T01:30:42.225Z,485.23
2023-07-03T01:31:42.300Z,482.06
2023-07-03T01:32:42.367Z,481.96
2023-07-03T01:33:43.384Z,480.90
2023-07-03T01:34:42.449Z,480.41
2023-07-03T01:35:43.493Z,483.63
2023-07-03T01:36:43.596Z,479.56
2023-07-03T01:37:43.618Z,482.90
2023-07-03T01:38:43.695Z,482.55
2023-07-03T01:39:42.723Z,485.93
2023-07-03T01:40:43.801Z,476.82
2023-07-03T01:41:43.841Z,482.88
2023-07-03T01:42:43.896Z,483.67
2023-07-03T01:43:43.948Z,481.16
2023-07-03T01:44:43.999Z,481.63
2023-07-03T01:45:44.100Z,483.75
2023-07-03T01:46:43.100Z,480.27
2023-07-03T01:47:44.192Z,487.35
2023-07-03T01:48:43.222Z,483.17
2023-07-03T01:49:44.290Z,480.81
2023-07-03T01:50:43.334Z,474.16
2023-07-03T01:51:44.365Z,482.82
2023-07-03T01:52:44.428Z,482.77
2023-07-03T01:53:43.500Z,488.30
2023-07-03T01:54:44.527Z,480.27
2023-07-03T01:55:44.577Z,479.31
2023-07-03T01:56:43.666Z,480.15
2023-07-03T01:57:43.733Z,484.07
2023-07-03T01:58:43.751Z,481.71
2023-07-03T01:59:44.795Z,476.13
2023-07-03T02:00:44.867Z,485.95
2023-07-03T02:01:44.965Z,478.76
2023-07-03T02:02:44.052Z,479.49
2023-07-03T02:03:44.054Z,481.70
2023-07-03T02:04:45.112Z,479.80
2023-07-03T02:05:44.119Z,479.37
2023-07-03T02:06:44.180Z,483.19
2023-07-03T02:07:45.233Z,486.85
2023-07-03T02:08:44.297Z,480.10
2023-07-03T02:09:45.352Z,479.70
2023-07-03T02:10:45.410Z,484.68
2023-07-03T02:11:44.444Z,487.23
2023-07-03T02:12:44.529Z,481.57
2023-07-03T02:13:45.571Z,477.44
2023-07-03T02:14:45.630Z,482.87
2023-07-03T02:15:45.694Z,481.53
2023-07-03T02:16:44.823Z,480.35
2023-07-03T02:17:45.845Z,483.15
2023-07-03T02:18:45.838Z,484.51
2023-07-03T02:19:44.900Z,480.07
2023-07-03T02:20:44.959Z,482.31
2023-07-03T02:21:46.020Z,484.19
2023-07-03T02:22:46.070Z,485.57
2023-07-03T02:23:45.142Z,485.66
2023-07-03T02:24:45.176Z,482.32
2023-07-03T02:25:46.235Z,483.71
2023-07-03T02:26:45.280Z,482.92
2023-07-03T02:27:46.433Z,485.45
2023-07-03T02:28:45.404Z,481.66
2023-07-03T02:29:45.472Z,486.94
2023-07-03T02:30:45.548Z,487.98
2023-07-03T02:31:46.578Z,490.03
2023-07-03T02:32:46.709Z,486.64
2023-07-03T02:33:46.741Z,483.58
2023-07-03T02:34:46.761Z,482.17
2023-07-03T02:35:46.853Z,484.13
2023-07-03T02:36:45.891Z,483.53
2023-07-03T02:37:46.953Z,482.40
2023-07-03T02:38:47.004Z,489.47
2023-07-03T02:39:46.103Z,479.95
2023-07-03T02:40:47.122Z,486.48
2023-07-03T02:41:46.178Z,485.70
2023-07-03T02:42:46.249Z,483.45
2023-07-03T02:43:46.332Z,486.58
2023-07-03T02:44:47.395Z,487.50
2023-07-03T02:45:47.543Z,482.31
2023-07-03T02:46:46.542Z,485.86
2023-07-03T02:47:46.581Z,488.85
2023-07-03T02:48:46.614Z,487.20
2023-07-03T02:49:47.755Z,490.83
2023-07-03T02:50:47.755Z,487.27
2023-07-03T02:51:47.793Z,485.66
2023-07-03T02:52:46.864Z,490.09
2023-07-03T02:53:47.911Z,484.12
2023-07-03T02:54:47.963Z,488.27
2023-07-03T02:55:48.210Z,485.64
2023-07-03T02:56:47.176Z,483.68
2023-07-03T02:57:47.155Z,488.02
2023-07-03T02:58:47.217Z,486.98
2023-07-03T02:59:48.300Z,491.98
2023-07-03T03:00:48.414Z,485.57
2023-07-03T03:01:47.426Z,484.40
2023-07-03T03:02:47.543Z,485.16
2023-07-03T03:03:47.584Z,490.09
2023-07-03T03:04:48.627Z,487.41
2023-07-03T03:05:47.737Z,487.86
2023-07-03T03:06:48.708Z,486.38
2023-07-03T03:07:48.803Z,482.23
2023-07-03T03:08:48.844Z,486.37
2023-07-03T03:09:48.943Z,485.88
2023-07-03T03:10:48.981Z,484.82
2023-07-03T03:11:49.028Z,485.91
2023-07-03T03:12:48.112Z,485.92
2023-07-03T03:13:48.155Z,494.02
2023-07-03T03:14:49.239Z,487.81
2023-07-03T03:15:49.618Z,486.12
2023-07-03T03:16:49.497Z,490.61
2023-07-03T03:17:48.400Z,490.08
2023-07-03T03:18:48.574Z,486.20
2023-07-03T03:19:49.514Z,489.06
2023-07-03T03:20:48.634Z,489.74
2023-07-03T03:21:48.618Z,488.45
2023-07-03T03:22:49.686Z,488.90
2023-07-03T03:23:48.734Z,489.32
2023-07-03T03:24:49.814Z,484.96
2023-07-03T03:25:50.212Z,490.20
2023-07-03T03:26:48.941Z,486.10
2023-07-03T03:27:48.984Z,486.00
2023-07-03T03:28:50.078Z,486.86
2023-07-03T03:29:50.115Z,488.15
2023-07-03T03:30:49.200Z,491.01
2023-07-03T03:31:50.241Z,490.11
2023-07-03T03:32:50.308Z,488.81
2023-07-03T03:33:50.343Z,492.26
2023-07-03T03:34:49.413Z,487.83
2023-07-03T03:35:49.730Z,489.40
2023-07-03T03:36:49.523Z,488.16
2023-07-03T03:37:50.578Z,489.07
2023-07-03T03:38:49.664Z,488.72
2023-07-03T03:39:50.720Z,487.87
2023-07-03T03:40:49.788Z,486.95
2023-07-03T03:41:49.853Z,484.67
2023-07-03T03:42:49.903Z,488.13
2023-07-03T03:43:50.968Z,487.13
2023-07-03T03:44:50.021Z,485.90
2023-07-03T03:45:50.367Z,493.81
2023-07-03T03:46:51.155Z,486.29
2023-07-03T03:47:51.318Z,489.97
2023-07-03T03:48:51.390Z,492.26
2023-07-03T03:49:50.343Z,491.08
2023-07-03T03:50:51.665Z,485.60
2023-07-03T03:51:50.472Z,492.05
2023-07-03T03:52:51.527Z,490.74
2023-07-03T03:53:51.599Z,491.12
2023-07-03T03:54:51.651Z,489.95
2023-07-03T03:55:51.141Z,490.15
2023-07-03T03:56:51.771Z,488.61
2023-07-03T03:57:51.823Z,493.48
2023-07-03T03:58:51.910Z,489.40
2023-07-03T03:59:52.132Z,490.63
2023-07-03T04:00:51.024Z,492.34
2023-07-03T04:01:51.157Z,486.46
2023-07-03T04:02:52.214Z,487.85
2023-07-03T04:03:52.342Z,496.04
2023-07-03T04:04:52.319Z,490.92
2023-07-03T04:05:52.636Z,486.49
2023-07-03T04:06:51.376Z,492.65
2023-07-03T04:07:52.443Z,492.79
2023-07-03T04:08:51.494Z,496.97
2023-07-03T04:09:52.557Z,493.38
2023-07-03T04:10:51.621Z,489.81
2023-07-03T04:11:51.688Z,493.95
2023-07-03T04:12:52.746Z,491.04
2023-07-03T04:13:52.906Z,493.90
2023-07-03T04:14:52.899Z,491.57
2023-07-03T04:15:52.604Z,493.66
2023-07-03T04:16:53.182Z,492.34
2023-07-03T04:17:52.104Z,490.10
2023-07-03T04:18:52.114Z,493.96
2023-07-03T04:19:52.199Z,494.60
2023-07-03T04:20:53.225Z,494.88
2023-07-03T04:21:53.304Z,496.10
2023-07-03T04:22:53.335Z,490.80
2023-07-03T04:23:52.412Z,495.16
2023-07-03T04:24:52.461Z,491.87
2023-07-03T04:25:52.797Z,488.63
2023-07-03T04:26:53.597Z,494.70
2023-07-03T04:27:52.631Z,493.94
2023-07-03T04:28:53.674Z,497.59
2023-07-03T04:29:53.740Z,488.87
2023-07-03T04:30:53.785Z,492.72
2023-07-03T04:31:52.914Z,494.39
2023-07-03T04:32:53.931Z,488.89
2023-07-03T04:33:52.954Z,494.35
2023-07-03T04:34:54.034Z,495.34
2023-07-03T04:35:53.319Z,490.82
2023-07-03T04:36:53.123Z,492.51
2023-07-03T04:37:53.177Z,498.99
2023-07-03T04:38:53.251Z,496.16
2023-07-03T04:39:53.313Z,493.22
2023-07-03T04:40:53.357Z,495.82
2023-07-03T04:41:54.411Z,499.13
2023-07-03T04:42:54.505Z,494.41
2023-07-03T04:43:54.535Z,496.99
2023-07-03T04:44:54.599Z,495.11
2023-07-03T04:45:54.060Z,494.32
2023-07-03T04:46:54.698Z,492.78
2023-07-03T04:47:54.908Z,494.73
2023-07-03T04:48:54.812Z,488.87
2023-07-03T04:49:53.892Z,491.06
2023-07-03T04:50:53.947Z,492.52
2023-07-03T04:51:53.972Z,493.50
2023-07-03T04:52:57.401Z,496.97
2023-07-03T04:53:55.015Z,494.65
2023-07-03T04:54:54.029Z,497.96
2023-07-03T04:55:54.559Z,495.72
2023-07-03T04:56:55.013Z,497.65
2023-07-03T04:57:54.984Z,499.98
2023-07-03T04:58:54.982Z,491.59
2023-07-03T04:59:54.978Z,497.90
2023-07-03T05:00:54.982Z,500.40
2023-07-03T05:01:55.042Z,501.46
2023-07-03T05:02:54.063Z,499.69
2023-07-03T05:03:54.136Z,498.50
2023-07-03T05:04:55.205Z,498.14
2023-07-03T05:05:55.177Z,499.37
2023-07-03T05:06:55.272Z,502.32
2023-07-03T05:07:57.874Z,499.53
2023-07-03T05:08:55.264Z,500.95
2023-07-03T05:09:54.257Z,498.74
2023-07-03T05:10:54.242Z,499.94
2023-07-03T05:11:54.257Z,495.98
2023-07-03T05:12:55.246Z,499.89
2023-07-03T05:13:55.251Z,498.24
2023-07-03T05:14:54.230Z,498.95
2023-07-03T05:15:54.454Z,497.10
2023-07-03T05:16:54.204Z,502.10
2023-07-03T05:17:55.234Z,495.89
2023-07-03T05:18:54.203Z,501.33
2023-07-03T05:19:55.170Z,501.18
2023-07-03T05:20:55.169Z,505.23
2023-07-03T05:21:55.166Z,498.65
2023-07-03T05:22:54.173Z,499.45
2023-07-03T05:23:54.245Z,501.96
2023-07-03T05:24:54.285Z,498.75
2023-07-03T05:25:54.523Z,501.83
2023-07-03T05:26:55.418Z,501.78
2023-07-03T05:27:55.470Z,501.55
2023-07-03T05:28:55.521Z,480.13
2023-07-03T05:29:54.591Z,471.59
2023-07-03T05:30:55.690Z,466.75
2023-07-03T05:31:54.731Z,465.69
2023-07-03T05:32:55.775Z,518.11
2023-07-03T05:33:54.803Z,489.23
2023-07-03T05:34:55.834Z,500.89
2023-07-03T05:35:55.987Z,481.20
2023-07-03T05:36:55.881Z,484.17
2023-07-03T05:37:55.942Z,487.83
2023-07-03T05:38:56.011Z,509.12
2023-07-03T05:39:56.037Z,512.90
2023-07-03T05:40:56.076Z,497.32
2023-07-03T05:41:55.134Z,494.80
2023-07-03T05:42:55.187Z,499.60
2023-07-03T05:43:56.242Z,507.81
2023-07-03T05:44:56.337Z,522.46
2023-07-03T05:45:56.389Z,638.79
2023-07-03T05:46:55.473Z,585.13
2023-07-03T05:47:56.489Z,513.52
2023-07-03T05:48:56.511Z,504.90
2023-07-03T05:49:56.558Z,505.15
2023-07-03T05:50:56.633Z,548.16
2023-07-03T05:51:56.668Z,544.61
2023-07-03T05:52:56.740Z,758.47
2023-07-03T05:53:55.808Z,509.02
2023-07-03T05:54:56.922Z,627.57
2023-07-03T05:55:56.942Z,587.88
2023-07-03T05:56:56.982Z,554.35
2023-07-03T05:57:56.034Z,575.87
2023-07-03T05:58:57.080Z,492.32
2023-07-03T05:59:57.150Z,728.21
2023-07-03T06:00:57.178Z,816.55
2023-07-03T06:01:57.209Z,787.00
2023-07-03T06:02:56.293Z,862.88
2023-07-03T06:03:57.292Z,818.42
2023-07-03T06:04:57.429Z,791.12
2023-07-03T06:05:57.307Z,689.48
2023-07-03T06:06:56.350Z,714.90
2023-07-03T06:07:57.401Z,774.28
2023-07-03T06:08:57.383Z,636.82
2023-07-03T06:09:57.404Z,695.86
2023-07-03T06:10:56.439Z,543.90
2023-07-03T06:11:57.424Z,692.47
2023-07-03T06:12:56.450Z,772.12
2023-07-03T06:13:56.441Z,794.72
2023-07-03T06:14:56.480Z,627.04
2023-07-03T06:15:57.456Z,627.74
2023-07-03T06:16:56.526Z,733.13
2023-07-03T06:17:57.479Z,794.97
2023-07-03T06:18:56.465Z,759.25
2023-07-03T06:19:56.458Z,724.79
2023-07-03T06:20:56.443Z,772.36
2023-07-03T06:21:57.494Z,768.79
2023-07-03T06:22:57.449Z,703.73
2023-07-03T06:23:57.452Z,698.56
2023-07-03T06:24:57.480Z,742.50
2023-07-03T06:25:57.441Z,702.38
2023-07-03T06:26:57.456Z,772.93
2023-07-03T06:27:57.420Z,676.29
2023-07-03T06:28:57.419Z,725.63
2023-07-03T06:29:56.416Z,740.07
2023-07-03T06:30:57.456Z,739.39
2023-07-03T06:31:56.425Z,783.20
2023-07-03T06:32:57.476Z,776.12
2023-07-03T06:33:56.403Z,765.99
2023-07-03T06:34:56.493Z,841.54
2023-07-03T06:35:57.411Z,789.14
2023-07-03T06:36:56.411Z,602.65
2023-07-03T06:37:56.398Z,718.86
2023-07-03T06:38:57.397Z,790.91
2023-07-03T06:39:57.412Z,765.65
2023-07-03T06:40:57.394Z,779.21
2023-07-03T06:41:57.400Z,677.10
2023-07-03T06:42:56.508Z,651.20
2023-07-03T06:43:57.376Z,762.01
2023-07-03T06:44:57.402Z,727.66
2023-07-03T06:45:58.333Z,721.40
2023-07-03T06:46:57.412Z,803.34
2023-07-03T06:47:57.453Z,749.37
2023-07-03T06:48:57.402Z,692.41
2023-07-03T06:49:56.411Z,702.43
2023-07-03T06:50:57.396Z,798.05
2023-07-03T06:51:57.398Z,737.03
2023-07-03T06:52:57.398Z,751.36
2023-07-03T06:53:57.400Z,701.11
2023-07-03T06:54:56.385Z,651.01
2023-07-03T06:55:59.116Z,800.53
2023-07-03T06:56:57.386Z,676.26
2023-07-03T06:57:57.363Z,753.36
2023-07-03T06:58:57.525Z,771.03
2023-07-03T06:59:57.377Z,760.35
2023-07-03T07:00:56.348Z,733.12
2023-07-03T07:01:56.399Z,747.46
2023-07-03T07:02:57.501Z,720.83
2023-07-03T07:03:56.389Z,724.29
2023-07-03T07:04:58.801Z,718.83
2023-07-03T07:05:58.983Z,790.41
2023-07-03T07:06:56.321Z,722.66
2023-07-03T07:07:56.334Z,814.56
2023-07-03T07:08:57.300Z,742.29
2023-07-03T07:09:57.311Z,852.56
2023-07-03T07:10:57.294Z,838.10
2023-07-03T07:11:56.452Z,771.64
2023-07-03T07:12:57.282Z,816.91
2023-07-03T07:13:57.282Z,698.85
2023-07-03T07:14:57.287Z,835.73
2023-07-03T07:15:56.243Z,799.90
2023-07-03T07:16:57.283Z,716.15
2023-07-03T07:17:56.269Z,688.03
2023-07-03T07:18:57.321Z,741.80
2023-07-03T07:19:59.082Z,666.75
2023-07-03T07:20:57.230Z,514.23
2023-07-03T07:21:57.199Z,537.47
2023-07-03T07:22:57.195Z,507.35
2023-07-03T07:23:57.229Z,523.64
2023-07-03T07:24:57.207Z,517.36
2023-07-03T07:25:58.389Z,524.79
2023-07-03T07:26:57.281Z,524.29
2023-07-03T07:27:56.345Z,522.87
2023-07-03T07:28:57.391Z,513.31
2023-07-03T07:29:57.456Z,516.64
2023-07-03T07:30:56.669Z,524.09
2023-07-03T07:31:57.581Z,500.72
2023-07-03T07:32:57.694Z,479.77
2023-07-03T07:33:56.739Z,468.49
2023-07-03T07:34:57.753Z,506.81
2023-07-03T07:35:57.802Z,488.76
2023-07-03T07:36:56.862Z,469.49
2023-07-03T07:37:56.903Z,483.71
2023-07-03T07:38:57.246Z,472.01
2023-07-03T07:39:57.005Z,491.94
2023-07-03T07:40:57.050Z,477.67
2023-07-03T07:41:57.142Z,473.00
2023-07-03T07:42:58.140Z,490.84
2023-07-03T07:43:57.196Z,471.34
2023-07-03T07:44:58.248Z,476.68
2023-07-03T07:45:58.329Z,500.48
2023-07-03T07:46:58.503Z,487.72
2023-07-03T07:47:57.431Z,507.79
2023-07-03T07:48:57.449Z,485.66
2023-07-03T07:49:57.474Z,477.38
2023-07-03T07:50:58.502Z,479.74
2023-07-03T07:51:58.550Z,521.30
2023-07-03T07:52:57.579Z,546.45
2023-07-03T07:53:58.621Z,484.37
2023-07-03T07:54:58.659Z,528.68
2023-07-03T07:55:58.660Z,511.95
2023-07-03T07:56:57.685Z,496.52
2023-07-03T07:57:58.728Z,496.23
2023-07-03T07:58:58.734Z,527.15
2023-07-03T07:59:57.778Z,506.38
2023-07-03T08:00:59.115Z,550.82
2023-07-03T08:01:58.833Z,528.02
2023-07-03T08:02:58.017Z,520.26
2023-07-03T08:03:58.905Z,545.97
2023-07-03T08:04:59.039Z,553.02
2023-07-03T08:05:58.931Z,531.37
2023-07-03T08:06:58.960Z,540.07
2023-07-03T08:07:58.007Z,551.57
2023-07-03T08:08:58.020Z,540.53
2023-07-03T08:09:59.040Z,547.68
2023-07-03T08:10:59.045Z,543.14
2023-07-03T08:11:58.056Z,532.99
2023-07-03T08:12:59.068Z,546.10
2023-07-03T08:13:59.081Z,544.02
2023-07-03T08:14:59.105Z,525.06
2023-07-03T08:15:59.137Z,536.06
2023-07-03T08:16:58.172Z,557.65
2023-07-03T08:17:58.126Z,533.70
2023-07-03T08:18:58.168Z,550.51
2023-07-03T08:19:58.184Z,543.25
2023-07-03T08:20:58.192Z,555.13
2023-07-03T08:21:58.217Z,539.82
2023-07-03T08:22:58.238Z,534.73
2023-07-03T08:23:59.242Z,543.43
2023-07-03T08:24:59.271Z,533.22
2023-07-03T08:25:59.264Z,543.22
2023-07-03T08:26:58.280Z,526.56
2023-07-03T08:27:58.275Z,539.64
2023-07-03T08:28:59.272Z,550.91
2023-07-03T08:29:58.282Z,545.23
2023-07-03T08:30:58.316Z,533.01
2023-07-03T08:31:59.355Z,524.09
2023-07-03T08:32:59.409Z,529.69
2023-07-03T08:33:58.468Z,545.70
2023-07-03T08:37:58.325Z,543.61
2023-07-03T08:38:59.326Z,535.00
2023-07-03T08:39:59.342Z,526.87
2023-07-03T08:40:59.314Z,533.76
2023-07-03T08:41:58.298Z,507.32
2023-07-03T08:42:59.314Z,515.07
2023-07-03T08:43:59.283Z,488.22
2023-07-03T08:44:59.285Z,488.21
2023-07-03T08:45:58.311Z,513.22
2023-07-03T08:47:10.770Z,507.51
2023-07-03T08:47:59.267Z,513.72
2023-07-03T08:48:58.278Z,500.37
2023-07-03T08:49:58.241Z,484.09
2023-07-03T08:50:59.386Z,491.00
2023-07-03T08:51:58.216Z,509.43
2023-07-03T08:52:59.231Z,503.39
2023-07-03T08:53:58.215Z,488.94
2023-07-03T08:54:59.200Z,488.93
2023-07-03T08:55:59.221Z,496.63
2023-07-03T08:56:59.191Z,491.07
2023-07-03T08:58:00.170Z,488.39
2023-07-03T08:58:59.178Z,487.29
2023-07-03T08:59:59.213Z,493.09
2023-07-03T09:00:59.308Z,488.03
2023-07-03T09:01:59.311Z,480.46
2023-07-03T09:02:58.434Z,485.47
2023-07-03T09:03:58.510Z,484.59
2023-07-03T09:04:59.496Z,491.11
2023-07-03T09:05:59.514Z,486.45
2023-07-03T09:06:59.667Z,488.53
2023-07-03T09:07:58.617Z,486.27
2023-07-03T09:08:58.671Z,487.25
2023-07-03T09:09:58.730Z,486.32
2023-07-03T09:10:58.824Z,486.64
2023-07-03T09:11:58.875Z,488.68
2023-07-03T09:12:59.936Z,488.10
2023-07-03T09:14:00.010Z,488.55
2023-07-03T09:14:59.052Z,484.39
2023-07-03T09:16:00.399Z,489.38
2023-07-03T09:17:00.424Z,484.40
2023-07-03T09:18:00.312Z,493.35
2023-07-03T09:18:59.339Z,489.80
2023-07-03T09:20:00.401Z,488.17
2023-07-03T09:20:59.456Z,492.00
2023-07-03T09:22:00.536Z,488.70
2023-07-03T09:23:00.676Z,491.76
2023-07-03T09:24:00.649Z,489.75
2023-07-03T09:25:00.701Z,490.71
2023-07-03T09:26:04.588Z,483.43
2023-07-03T09:27:01.318Z,490.71
2023-07-03T09:28:00.967Z,490.02
2023-07-03T09:28:59.994Z,489.28
2023-07-03T09:30:00.080Z,484.20
2023-07-03T09:31:01.841Z,487.07
2023-07-03T09:32:00.366Z,485.88
2023-07-03T09:33:00.448Z,488.27
2023-07-03T09:34:00.436Z,476.70
2023-07-03T09:35:01.470Z,468.39
2023-07-03T09:36:02.460Z,480.03
2023-07-03T09:37:01.588Z,473.68
2023-07-03T09:38:00.674Z,477.51
2023-07-03T09:39:01.871Z,477.76
2023-07-03T09:40:01.868Z,467.88
2023-07-03T09:41:02.016Z,473.15
2023-07-03T09:42:00.875Z,476.97
2023-07-03T09:43:01.969Z,462.85
2023-07-03T09:44:01.360Z,462.47
2023-07-03T09:45:01.042Z,457.56
2023-07-03T09:46:01.122Z,451.14
2023-07-03T09:47:01.156Z,450.04
2023-07-03T09:48:02.472Z,447.59
2023-07-03T09:49:02.263Z,447.81
2023-07-03T09:50:02.305Z,444.39
2023-07-03T09:51:07.915Z,439.42
2023-07-03T09:52:02.345Z,437.04
2023-07-03T09:53:09.119Z,437.87
2023-07-03T09:54:02.326Z,436.34
2023-07-03T09:55:02.455Z,438.81
2023-07-03T09:56:02.307Z,433.81
2023-07-03T09:57:02.317Z,438.82
2023-07-03T09:58:02.320Z,429.22
2023-07-03T09:59:02.308Z,435.39
2023-07-03T10:00:02.304Z,437.63
2023-07-03T10:01:02.454Z,433.96
2023-07-03T10:04:01.404Z,436.60
2023-07-03T10:07:01.755Z,438.58
2023-07-03T10:08:01.466Z,433.52
2023-07-03T10:12:01.297Z,440.55
2023-07-03T10:13:01.307Z,442.44
2023-07-03T10:14:02.208Z,451.38
2023-07-03T10:15:02.213Z,447.58
2023-07-03T10:16:01.189Z,438.35
2023-07-03T10:17:01.214Z,436.08
2023-07-03T10:18:01.381Z,441.30
2023-07-03T10:19:02.151Z,440.78
2023-07-03T10:20:02.374Z,441.00
2023-07-03T10:21:02.181Z,437.45
2023-07-03T10:22:02.169Z,437.81
2023-07-03T10:23:02.171Z,427.38
2023-07-03T10:24:01.153Z,425.40
2023-07-03T10:25:01.101Z,431.53
2023-07-03T10:26:01.095Z,424.14
2023-07-03T10:27:01.203Z,426.21
2023-07-03T10:28:02.180Z,425.13
2023-07-03T10:29:02.227Z,421.57
2023-07-03T10:30:02.108Z,423.13
2023-07-03T10:31:02.157Z,417.98
2023-07-03T10:32:01.397Z,417.36
2023-07-03T10:33:02.166Z,411.08
2023-07-03T10:34:01.043Z,401.30
2023-07-03T10:35:01.050Z,412.34
2023-07-03T10:36:01.812Z,410.69
2023-07-03T10:37:01.048Z,406.00
2023-07-03T10:38:01.037Z,403.90
2023-07-03T10:39:01.040Z,403.81
2023-07-03T10:40:02.024Z,400.06
2023-07-03T10:41:02.035Z,401.17
2023-07-03T10:42:02.069Z,399.20
2023-07-03T10:43:02.297Z,391.87
2023-07-03T10:44:02.222Z,395.44
2023-07-03T10:45:01.223Z,391.83
2023-07-03T10:46:01.316Z,395.81
2023-07-03T10:47:02.279Z,388.32
2023-07-03T10:48:02.436Z,385.94
2023-07-03T10:49:01.361Z,382.10
2023-07-03T10:50:01.444Z,384.14
2023-07-03T10:51:02.506Z,382.52
2023-07-03T10:52:01.489Z,379.23
2023-07-03T10:53:02.538Z,379.74
2023-07-03T10:54:01.583Z,373.19
2023-07-03T10:55:02.629Z,371.58
2023-07-03T10:56:02.644Z,367.69
2023-07-03T10:57:01.709Z,368.19
2023-07-03T10:58:01.707Z,365.26
2023-07-03T10:59:02.859Z,359.55
2023-07-03T11:00:01.772Z,356.41
2023-07-03T11:01:01.850Z,353.96
2023-07-03T11:02:02.900Z,350.32
2023-07-03T11:03:02.997Z,350.09
2023-07-03T11:04:22.289Z,348.65
2023-07-03T11:05:02.917Z,345.60
2023-07-03T11:06:02.898Z,343.05
2023-07-03T11:07:02.910Z,335.72
2023-07-03T11:08:01.887Z,336.55
2023-07-03T11:09:02.920Z,329.76
2023-07-03T11:10:02.887Z,326.71
2023-07-03T11:11:01.906Z,328.94
2023-07-03T11:12:01.902Z,331.23
2023-07-03T11:13:01.854Z,327.61
2023-07-03T11:14:01.929Z,330.35
2023-07-03T11:15:01.970Z,323.64
2023-07-03T11:16:03.009Z,325.15
2023-07-03T11:17:02.881Z,325.11
2023-07-03T11:20:01.858Z,319.63
2023-07-03T11:23:01.835Z,322.53
2023-07-03T11:24:02.808Z,317.56
2023-07-03T11:25:02.787Z,314.00
2023-07-03T11:28:01.783Z,314.24
2023-07-03T11:29:02.757Z,321.57
2023-07-03T11:30:02.747Z,315.46
2023-07-03T11:31:02.894Z,314.97
2023-07-03T11:32:01.741Z,310.33
2023-07-03T11:33:01.745Z,316.68
2023-07-03T11:36:01.693Z,310.78
2023-07-03T11:37:04.376Z,317.92
2023-07-03T11:40:01.708Z,305.86
2023-07-03T11:41:01.863Z,309.78
2023-07-03T11:44:01.645Z,300.28
2023-07-03T11:45:01.721Z,307.96
2023-07-03T11:46:01.643Z,306.62
2023-07-03T11:47:01.752Z,310.49
2023-07-03T11:48:02.750Z,305.31
2023-07-03T11:49:02.609Z,304.17
2023-07-03T11:50:01.679Z,307.40
2023-07-03T11:51:02.598Z,306.03
2023-07-03T11:52:02.600Z,298.20
2023-07-03T11:53:02.605Z,299.43
2023-07-03T11:54:01.583Z,302.84
2023-07-03T11:55:02.583Z,297.71
2023-07-03T11:56:01.602Z,299.16
2023-07-03T11:57:01.569Z,302.48
2023-07-03T11:58:15.060Z,301.72
2023-07-03T11:59:02.549Z,300.55
2023-07-03T12:00:01.559Z,298.92
2023-07-03T12:01:02.564Z,293.76
2023-07-03T12:02:02.564Z,295.77
2023-07-03T12:03:02.671Z,290.67
2023-07-03T12:04:01.592Z,295.89
2023-07-03T12:05:02.514Z,290.27
2023-07-03T12:06:02.520Z,293.24
2023-07-03T12:07:02.522Z,293.25
2023-07-03T12:08:02.497Z,286.85
2023-07-03T12:09:01.479Z,290.61
2023-07-03T12:10:01.483Z,290.11
2023-07-03T12:11:01.468Z,285.91
2023-07-03T12:12:01.497Z,330.60
2023-07-03T12:13:01.454Z,307.05
2023-07-03T12:14:02.463Z,280.67
2023-07-03T12:15:01.441Z,281.48
2023-07-03T12:16:02.462Z,282.63
2023-07-03T12:17:01.504Z,275.32
2023-07-03T12:18:01.463Z,272.73
2023-07-03T12:19:01.476Z,275.83
2023-07-03T12:20:01.465Z,276.83
2023-07-03T12:21:01.472Z,274.22
2023-07-03T12:22:02.402Z,273.55
2023-07-03T12:23:02.385Z,274.54
2023-07-03T12:24:01.409Z,275.14
2023-07-03T12:25:01.420Z,277.30
2023-07-03T12:26:02.404Z,270.98
2023-07-03T12:27:02.483Z,269.11
2023-07-03T12:28:01.392Z,271.51
2023-07-03T12:29:02.339Z,276.58
2023-07-03T12:30:02.354Z,274.48
2023-07-03T12:31:01.364Z,273.79
2023-07-03T12:32:01.330Z,276.10
2023-07-03T12:33:02.387Z,275.44
2023-07-03T12:34:01.353Z,273.42
2023-07-03T12:35:02.352Z,274.88
2023-07-03T12:36:02.308Z,280.38
2023-07-03T12:37:02.585Z,277.23
2023-07-03T12:38:01.285Z,272.20
2023-07-03T12:39:02.265Z,272.41
2023-07-03T12:40:02.277Z,272.53
2023-07-03T12:41:01.267Z,276.42
2023-07-03T12:42:02.276Z,271.83
2023-07-03T12:43:01.275Z,270.26
2023-07-03T12:45:01.294Z,270.71
2023-07-03T12:46:02.256Z,268.98
2023-07-03T12:47:01.366Z,263.82
2023-07-03T12:48:01.271Z,263.66
2023-07-03T12:49:01.237Z,263.80
2023-07-03T12:50:01.322Z,261.87
2023-07-03T12:51:01.314Z,257.74
2023-07-03T12:52:02.246Z,259.40